createdAt,value
2023-05-12T00:02:08.621Z,101312.60
2023-05-12T00:04:36.929Z,101314.73
2023-05-12T00:07:06.535Z,101314.93
2023-05-12T00:09:35.771Z,101319.81
2023-05-12T00:12:04.256Z,101314.64
2023-05-12T00:14:32.214Z,101317.76
2023-05-12T00:16:59.825Z,101321.09
2023-05-12T00:19:27.308Z,101320.20
2023-05-12T00:21:54.493Z,101328.61
2023-05-12T00:24:22.914Z,101321.27
2023-05-12T00:26:50.460Z,101326.76
2023-05-12T00:29:17.885Z,101328.45
2023-05-12T00:31:44.952Z,101332.22
2023-05-12T00:34:13.137Z,101329.70
2023-05-12T00:36:40.509Z,101333.64
2023-05-12T00:39:07.912Z,101334.31
2023-05-12T00:41:34.892Z,101336.35
2023-05-12T00:44:01.950Z,101337.86
2023-05-12T00:46:30.805Z,101336.73
2023-05-12T00:48:58.280Z,101336.01
2023-05-12T00:51:25.693Z,101331.86
2023-05-12T00:53:52.852Z,101325.63
2023-05-12T00:56:21.328Z,101329.06
2023-05-12T00:58:48.640Z,101328.38
2023-05-12T01:01:20.475Z,101334.69
2023-05-12T01:03:52.120Z,101333.98
2023-05-12T01:06:47.148Z,101331.98
2023-05-12T01:09:19.993Z,101332.77
2023-05-12T01:11:49.725Z,101334.72
2023-05-12T01:14:18.724Z,101337.34
2023-05-12T01:16:52.526Z,101338.77
2023-05-12T01:19:56.150Z,101334.20
2023-05-12T01:22:24.791Z,101333.54
2023-05-12T01:25:04.081Z,101334.55
2023-05-12T01:27:33.222Z,101335.58
2023-05-12T01:30:07.181Z,101338.23
2023-05-12T01:32:36.098Z,101334.73
2023-05-12T01:35:05.952Z,101339.15
2023-05-12T01:37:35.036Z,101335.51
2023-05-12T01:40:06.033Z,101334.15
2023-05-12T01:42:33.510Z,101336.10
2023-05-12T01:45:00.704Z,101334.53
2023-05-12T01:47:29.348Z,101333.48
2023-05-12T01:50:17.271Z,101333.95
2023-05-12T01:52:45.813Z,101329.17
2023-05-12T01:55:15.773Z,101328.49
2023-05-12T01:57:51.788Z,101327.79
2023-05-12T02:00:21.189Z,101330.27
2023-05-12T02:02:49.724Z,101328.73
2023-05-12T02:05:17.430Z,101329.91
2023-05-12T02:07:46.879Z,101330.73
2023-05-12T02:10:14.752Z,101330.84
2023-05-12T02:12:42.901Z,101331.02
2023-05-12T02:15:10.779Z,101328.35
2023-05-12T02:17:42.734Z,101329.05
2023-05-12T02:20:13.853Z,101330.27
2023-05-12T02:22:40.901Z,101326.99
2023-05-12T02:25:10.449Z,101326.70
2023-05-12T02:27:38.576Z,101328.69
2023-05-12T02:30:06.996Z,101332.63
2023-05-12T02:32:35.311Z,101332.39
2023-05-12T02:35:03.311Z,101336.95
2023-05-12T02:37:31.162Z,101334.39
2023-05-12T02:39:58.814Z,101333.05
2023-05-12T02:42:33.717Z,101331.24
2023-05-12T02:45:02.551Z,101329.23
2023-05-12T02:47:32.472Z,101331.25
2023-05-12T02:50:00.292Z,101334.07
2023-05-12T02:52:27.336Z,101330.85
2023-05-12T02:54:55.597Z,101333.59
2023-05-12T02:57:26.782Z,101332.09
2023-05-12T02:59:54.482Z,101334.66
2023-05-12T03:02:22.656Z,101336.49
2023-05-12T03:04:51.132Z,101340.42
2023-05-12T03:07:21.106Z,101340.92
2023-05-12T03:09:48.360Z,101347.98
2023-05-12T03:12:15.961Z,101345.16
2023-05-12T03:14:43.651Z,101346.20
2023-05-12T03:17:10.798Z,101349.19
2023-05-12T03:19:39.306Z,101349.70
2023-05-12T03:22:09.093Z,101352.50
2023-05-12T03:24:36.664Z,101354.48
2023-05-12T03:27:04.608Z,101356.98
2023-05-12T03:29:32.137Z,101357.06
2023-05-12T03:32:00.043Z,101359.38
2023-05-12T03:34:27.136Z,101360.03
2023-05-12T03:36:55.281Z,101360.33
2023-05-12T03:39:25.088Z,101357.04
2023-05-12T03:41:52.974Z,101356.23
2023-05-12T03:44:20.704Z,101357.20
2023-05-12T03:46:49.744Z,101360.84
2023-05-12T03:49:17.026Z,101353.89
2023-05-12T03:51:44.660Z,101357.35
2023-05-12T03:54:13.719Z,101355.99
2023-05-12T03:56:42.455Z,101357.46
2023-05-12T03:59:11.892Z,101358.06
2023-05-12T04:01:40.062Z,101359.39
2023-05-12T04:04:07.947Z,101356.44
2023-05-12T04:06:36.528Z,101356.13
2023-05-12T04:09:04.490Z,101355.43
2023-05-12T04:11:31.543Z,101354.92
2023-05-12T04:14:00.877Z,101352.98
2023-05-12T04:16:31.506Z,101355.11
2023-05-12T04:19:00.244Z,101356.17
2023-05-12T04:21:30.434Z,101355.67
2023-05-12T04:24:05.933Z,101357.81
2023-05-12T04:26:38.502Z,101360.65
2023-05-12T04:29:06.077Z,101357.64
2023-05-12T04:31:54.001Z,101362.07
2023-05-12T04:34:21.494Z,101358.70
2023-05-12T04:36:52.508Z,101358.70
2023-05-12T04:39:20.996Z,101362.60
2023-05-12T04:41:52.267Z,101365.09
2023-05-12T04:44:21.646Z,101360.46
2023-05-12T04:46:52.872Z,101358.51
2023-05-12T04:49:20.626Z,101357.79
2023-05-12T04:51:49.173Z,101362.22
2023-05-12T04:54:20.306Z,101359.02
2023-05-12T04:57:08.768Z,101360.08
2023-05-12T04:59:41.092Z,101362.73
2023-05-12T05:02:09.447Z,101364.84
2023-05-12T05:04:37.173Z,101366.08
2023-05-12T05:07:05.028Z,101362.15
2023-05-12T05:09:35.583Z,101364.95
2023-05-12T05:12:06.674Z,101364.74
2023-05-12T05:14:34.646Z,101365.60
2023-05-12T05:17:03.599Z,101366.45
2023-05-12T05:19:53.670Z,101366.02
2023-05-12T05:22:25.819Z,101374.44
2023-05-12T05:24:56.861Z,101371.46
2023-05-12T05:27:26.026Z,101372.04
2023-05-12T05:29:53.910Z,101374.61
2023-05-12T05:32:22.551Z,101376.14
2023-05-12T05:34:50.372Z,101377.63
2023-05-12T05:37:19.065Z,101376.09
2023-05-12T05:39:46.398Z,101377.23
2023-05-12T05:42:31.445Z,101377.52
2023-05-12T05:45:13.141Z,101381.48
2023-05-12T05:47:46.249Z,101377.77
2023-05-12T05:50:13.713Z,101377.80
2023-05-12T05:52:42.328Z,101375.12
2023-05-12T05:55:10.069Z,101377.07
2023-05-12T05:57:37.514Z,101373.46
2023-05-12T06:00:07.437Z,101379.23
2023-05-12T06:02:41.463Z,101372.09
2023-05-12T06:05:09.555Z,101375.98
2023-05-12T06:07:37.060Z,101372.14
2023-05-12T06:10:05.801Z,101370.01
2023-05-12T06:12:34.085Z,101367.45
2023-05-12T06:15:01.292Z,101369.70
2023-05-12T06:17:32.036Z,101366.42
2023-05-12T06:20:00.734Z,101368.16
2023-05-12T06:22:31.533Z,101362.69
2023-05-12T06:24:58.760Z,101361.92
2023-05-12T06:27:26.108Z,101365.80
2023-05-12T06:29:53.297Z,101363.16
2023-05-12T06:32:20.518Z,101361.27
2023-05-12T06:34:47.687Z,101362.45
2023-05-12T06:37:14.919Z,101359.77
2023-05-12T06:39:42.503Z,101362.83
2023-05-12T06:42:10.968Z,101359.70
2023-05-12T06:44:42.328Z,101361.30
2023-05-12T06:47:09.976Z,101355.36
2023-05-12T06:49:38.168Z,101357.53
2023-05-12T06:52:06.881Z,101355.56
2023-05-12T06:54:34.328Z,101361.52
2023-05-12T06:57:01.674Z,101360.08
2023-05-12T06:59:29.149Z,101354.64
2023-05-12T07:01:56.465Z,101354.60
2023-05-12T07:04:26.154Z,101352.90
2023-05-12T07:06:54.227Z,101359.08
2023-05-12T07:09:21.912Z,101355.73
2023-05-12T07:11:49.175Z,101356.06
2023-05-12T07:14:18.628Z,101356.90
2023-05-12T07:16:46.490Z,101355.25
2023-05-12T07:19:13.968Z,101352.94
2023-05-12T07:21:41.386Z,101353.35
2023-05-12T07:24:08.520Z,101353.56
2023-05-12T07:26:35.585Z,101351.02
2023-05-12T07:29:03.792Z,101353.82
2023-05-12T07:31:33.197Z,101351.13
2023-05-12T07:34:00.255Z,101354.76
2023-05-12T07:36:27.913Z,101355.71
2023-05-12T07:38:55.650Z,101358.30
2023-05-12T07:41:22.690Z,101356.55
2023-05-12T07:43:49.822Z,101358.25
2023-05-12T07:46:17.476Z,101353.65
2023-05-12T07:48:44.520Z,101353.97
2023-05-12T07:51:11.628Z,101349.84
2023-05-12T07:53:38.622Z,101349.75
2023-05-12T07:56:07.798Z,101348.58
2023-05-12T07:58:35.542Z,101347.30
2023-05-12T08:01:05.579Z,101343.77
2023-05-12T08:03:33.190Z,101346.88
2023-05-12T08:06:00.812Z,101342.98
2023-05-12T08:08:28.034Z,101343.98
2023-05-12T08:10:55.197Z,101341.23
2023-05-12T08:13:22.818Z,101339.27
2023-05-12T08:15:49.992Z,101343.53
2023-05-12T08:18:18.433Z,101339.54
2023-05-12T08:20:45.513Z,101337.63
2023-05-12T08:23:12.560Z,101333.63
2023-05-12T08:25:40.759Z,101335.77
2023-05-12T08:28:08.418Z,101332.02
2023-05-12T08:30:35.800Z,101327.04
2023-05-12T08:33:03.703Z,101328.84
2023-05-12T08:35:31.860Z,101324.48
2023-05-12T08:38:01.684Z,101325.88
2023-05-12T08:40:31.320Z,101322.88
2023-05-12T08:43:34.446Z,101325.36
2023-05-12T08:46:02.062Z,101326.38
2023-05-12T08:48:29.252Z,101323.53
2023-05-12T08:50:57.349Z,101319.36
2023-05-12T08:53:24.464Z,101320.30
2023-05-12T08:57:09.440Z,101315.62
2023-05-12T08:58:43.223Z,101312.95
2023-05-12T09:01:12.125Z,101311.39
2023-05-12T09:03:39.495Z,101317.94
2023-05-12T09:06:06.821Z,101317.65
2023-05-12T09:08:34.462Z,101310.88
2023-05-12T09:11:01.984Z,101311.95
2023-05-12T09:13:40.844Z,101306.59
2023-05-12T09:16:12.253Z,101304.15
2023-05-12T09:18:56.991Z,101301.85
2023-05-12T09:21:24.552Z,101306.14
2023-05-12T09:24:08.528Z,101306.55
2023-05-12T09:26:54.560Z,101303.94
2023-05-12T09:29:30.745Z,101304.23
2023-05-12T09:32:01.554Z,101303.51
2023-05-12T09:34:32.019Z,101302.00
2023-05-12T09:37:00.981Z,101290.70
2023-05-12T09:39:28.416Z,101301.86
2023-05-12T09:41:55.773Z,101298.76
2023-05-12T09:44:23.385Z,101300.88
2023-05-12T09:46:51.154Z,101292.85
2023-05-12T09:49:19.942Z,101287.64
2023-05-12T09:51:47.010Z,101294.12
2023-05-12T09:54:27.878Z,101288.80
2023-05-12T09:57:04.307Z,101291.09
2023-05-12T09:59:35.717Z,101283.95
2023-05-12T10:02:04.894Z,101285.50
2023-05-12T10:04:57.756Z,101284.47
2023-05-12T10:07:26.613Z,101284.55
2023-05-12T10:09:56.652Z,101281.73
2023-05-12T10:12:23.585Z,101287.27
2023-05-12T10:14:51.298Z,101284.90
2023-05-12T10:17:19.233Z,101284.59
2023-05-12T10:19:47.067Z,101282.24
2023-05-12T10:22:15.554Z,101272.45
2023-05-12T10:24:42.649Z,101271.70
2023-05-12T10:27:11.731Z,101271.91
2023-05-12T10:29:38.914Z,101263.92
2023-05-12T10:32:06.625Z,101266.23
2023-05-12T10:34:34.810Z,101261.82
2023-05-12T10:37:06.373Z,101258.98
2023-05-12T10:39:34.293Z,101261.89
2023-05-12T10:42:10.655Z,101262.44
2023-05-12T10:44:51.376Z,101258.50
2023-05-12T10:47:26.103Z,101257.94
2023-05-12T10:49:56.978Z,101250.27
2023-05-12T10:52:24.080Z,101255.98
2023-05-12T10:54:51.506Z,101256.31
2023-05-12T10:57:22.463Z,101253.70
2023-05-12T10:59:51.990Z,101251.71
2023-05-12T11:02:26.033Z,101248.31
2023-05-12T11:05:01.277Z,101250.27
2023-05-12T11:07:30.898Z,101246.83
2023-05-12T11:10:01.656Z,101244.58
2023-05-12T11:12:33.200Z,101239.40
2023-05-12T11:15:01.732Z,101235.14
2023-05-12T11:17:29.438Z,101236.02
2023-05-12T11:19:57.636Z,101232.97
2023-05-12T11:22:24.870Z,101227.44
2023-05-12T11:24:52.131Z,101223.45
2023-05-12T11:27:20.710Z,101224.96
2023-05-12T11:29:58.524Z,101225.40
2023-05-12T11:32:26.092Z,101222.16
2023-05-12T11:34:53.317Z,101229.30
2023-05-12T11:37:20.664Z,101224.09
2023-05-12T11:39:47.902Z,101229.63
2023-05-12T11:42:17.607Z,101230.17
2023-05-12T11:44:51.409Z,101227.45
2023-05-12T11:47:19.124Z,101226.10
2023-05-12T11:49:56.477Z,101222.40
2023-05-12T11:52:24.447Z,101225.48
2023-05-12T11:54:53.043Z,101221.75
2023-05-12T11:57:31.874Z,101229.20
2023-05-12T12:00:01.823Z,101228.24
2023-05-12T12:02:49.974Z,101220.83
2023-05-12T12:05:18.853Z,101218.75
2023-05-12T12:07:47.712Z,101213.47
2023-05-12T12:10:16.180Z,101216.56
2023-05-12T12:12:44.165Z,101214.99
2023-05-12T12:15:11.577Z,101214.33
2023-05-12T12:17:39.086Z,101211.19
2023-05-12T12:20:07.289Z,101206.90
2023-05-12T12:22:35.268Z,101205.48
2023-05-12T12:25:03.039Z,101207.10
2023-05-12T12:27:31.618Z,101205.20
2023-05-12T12:29:59.518Z,101204.19
2023-05-12T12:32:26.651Z,101200.11
2023-05-12T12:34:53.726Z,101202.65
2023-05-12T12:37:22.796Z,101196.79
2023-05-12T12:39:49.856Z,101193.47
2023-05-12T12:42:17.685Z,101195.30
2023-05-12T12:44:47.157Z,101194.94
2023-05-12T12:47:14.860Z,101195.35
2023-05-12T12:49:42.172Z,101193.20
2023-05-12T12:52:09.779Z,101194.27
2023-05-12T12:54:37.017Z,101190.55
2023-05-12T12:57:05.212Z,101195.13
2023-05-12T12:59:32.693Z,101193.94
2023-05-12T13:02:00.903Z,101196.99
2023-05-12T13:04:28.087Z,101192.01
2023-05-12T13:06:55.822Z,101192.19
2023-05-12T13:09:22.830Z,101192.35
2023-05-12T13:11:51.013Z,101193.95
2023-05-12T13:14:18.506Z,101188.75
2023-05-12T13:16:45.663Z,101187.30
2023-05-12T13:19:14.429Z,101191.55
2023-05-12T13:21:41.948Z,101187.60
2023-05-12T13:24:08.977Z,101193.48
2023-05-12T13:26:36.186Z,101191.69
2023-05-12T13:29:04.024Z,101187.23
2023-05-12T13:31:31.789Z,101188.98
2023-05-12T13:33:59.334Z,101184.32
2023-05-12T13:36:26.959Z,101185.90
2023-05-12T13:38:53.996Z,101186.23
2023-05-12T13:41:21.127Z,101184.56
2023-05-12T13:43:48.159Z,101185.58
2023-05-12T13:46:15.473Z,101185.02
2023-05-12T13:48:42.544Z,101187.34
2023-05-12T13:51:10.629Z,101184.13
2023-05-12T13:53:41.144Z,101184.85
2023-05-12T13:56:17.631Z,101184.33
2023-05-12T13:58:45.075Z,101188.13
2023-05-12T14:01:12.256Z,101183.48
2023-05-12T14:03:41.532Z,101183.88
2023-05-12T14:06:08.888Z,101181.95
2023-05-12T14:08:37.000Z,101186.79
2023-05-12T14:11:04.469Z,101185.33
2023-05-12T14:13:31.889Z,101180.83
2023-05-12T14:15:59.721Z,101187.21
2023-05-12T14:18:27.393Z,101184.50
2023-05-12T14:20:54.701Z,101183.36
2023-05-12T14:23:23.389Z,101181.36
2023-05-12T14:25:50.377Z,101182.59
2023-05-12T14:28:17.593Z,101179.20
2023-05-12T14:30:45.162Z,101176.94
2023-05-12T14:33:13.145Z,101173.23
2023-05-12T14:35:40.284Z,101177.10
2023-05-12T14:38:07.306Z,101176.99
2023-05-12T14:40:34.822Z,101175.80
2023-05-12T14:43:01.881Z,101177.95
2023-05-12T14:45:31.062Z,101179.23
2023-05-12T14:47:58.215Z,101181.05
2023-05-12T14:50:25.669Z,101179.65
2023-05-12T14:52:52.762Z,101183.78
2023-05-12T14:55:20.762Z,101182.73
2023-05-12T14:57:48.027Z,101184.59
2023-05-12T15:00:16.613Z,101179.13
2023-05-12T15:02:45.882Z,101181.65
2023-05-12T15:05:17.697Z,101179.95
2023-05-12T15:07:50.941Z,101179.64
2023-05-12T15:10:29.256Z,101183.77
2023-05-12T15:12:59.131Z,101181.65
2023-05-12T15:15:28.495Z,101178.13
2023-05-12T15:17:56.002Z,101176.95
2023-05-12T15:20:25.719Z,101179.48
2023-05-12T15:22:56.054Z,101178.64
2023-05-12T15:25:24.050Z,101175.64
2023-05-12T15:28:18.683Z,101179.26
2023-05-12T15:30:54.242Z,101174.30
2023-05-12T15:33:30.444Z,101174.00
2023-05-12T15:36:00.286Z,101177.25
2023-05-12T15:38:28.986Z,101171.77
2023-05-12T15:40:55.959Z,101168.97
2023-05-12T15:43:24.477Z,101166.00
2023-05-12T15:45:51.735Z,101170.00
2023-05-12T15:48:21.293Z,101172.42
2023-05-12T15:50:57.477Z,101175.00
2023-05-12T15:53:26.294Z,101178.12
2023-05-12T15:56:12.987Z,101178.55
2023-05-12T15:58:43.511Z,101181.48
2023-05-12T16:01:11.615Z,101187.63
2023-05-12T16:03:41.475Z,101185.20
2023-05-12T16:06:12.147Z,101185.61
2023-05-12T16:08:40.597Z,101183.20
2023-05-12T16:11:09.866Z,101178.09
2023-05-12T16:13:40.136Z,101178.84
2023-05-12T16:16:09.445Z,101182.12
2023-05-12T16:18:39.798Z,101187.52
2023-05-12T16:21:11.305Z,101188.66
2023-05-12T16:23:39.086Z,101187.30
2023-05-12T16:26:06.663Z,101188.05
2023-05-12T16:28:53.046Z,101191.85
2023-05-12T16:31:30.587Z,101192.27
2023-05-12T16:34:02.878Z,101192.34
2023-05-12T16:36:31.887Z,101195.44
2023-05-12T16:39:00.946Z,101195.15
2023-05-12T16:41:29.620Z,101198.21
2023-05-12T16:44:01.678Z,101198.47
2023-05-12T16:46:32.567Z,101197.27
2023-05-12T16:49:11.721Z,101203.39
2023-05-12T16:52:01.468Z,101208.81
2023-05-12T16:54:32.638Z,101211.02
2023-05-12T16:57:16.379Z,101212.16
2023-05-12T16:59:48.524Z,101214.38
2023-05-12T17:02:18.430Z,101215.52
2023-05-12T17:04:55.900Z,101216.31
2023-05-12T17:07:28.126Z,101217.10
2023-05-12T17:09:57.604Z,101220.55
2023-05-12T17:12:24.942Z,101220.25
2023-05-12T17:15:03.795Z,101225.50
2023-05-12T17:17:39.301Z,101225.94
2023-05-12T17:20:09.793Z,101223.52
2023-05-12T17:22:44.571Z,101225.39
2023-05-12T17:25:13.613Z,101234.23
2023-05-12T17:27:58.414Z,101245.91
2023-05-12T17:30:28.804Z,101245.27
2023-05-12T17:32:57.129Z,101246.42
2023-05-12T17:35:25.566Z,101244.37
2023-05-12T17:37:58.024Z,101245.34
2023-05-12T17:40:26.026Z,101245.59
2023-05-12T17:42:56.958Z,101249.02
2023-05-12T17:45:25.279Z,101250.16
2023-05-12T17:48:01.753Z,101254.85
2023-05-12T17:50:51.513Z,101258.48
2023-05-12T17:53:19.407Z,101258.54
2023-05-12T17:55:48.003Z,101261.80
2023-05-12T17:58:17.287Z,101265.79
2023-05-12T18:00:46.278Z,101264.06
2023-05-12T18:03:19.892Z,101264.13
2023-05-12T18:05:48.490Z,101259.02
2023-05-12T18:08:16.845Z,101263.31
2023-05-12T18:10:45.069Z,101271.54
2023-05-12T18:13:16.739Z,101276.39
2023-05-12T18:15:47.587Z,101272.69
2023-05-12T18:18:16.682Z,101271.13
2023-05-12T18:20:43.985Z,101274.03
2023-05-12T18:23:12.556Z,101271.41
2023-05-12T18:25:41.361Z,101269.32
2023-05-12T18:28:11.175Z,101278.08
2023-05-12T18:30:39.838Z,101281.67
2023-05-12T18:33:10.742Z,101283.16
2023-05-12T18:35:44.393Z,101284.61
2023-05-12T18:38:13.377Z,101283.06
2023-05-12T18:40:43.379Z,101286.85
2023-05-12T18:43:14.059Z,101289.39
2023-05-12T18:45:43.211Z,101287.81
2023-05-12T18:48:14.085Z,101288.91
2023-05-12T18:50:45.824Z,101291.27
2023-05-12T18:53:14.280Z,101287.56
2023-05-12T18:55:42.980Z,101286.88
2023-05-12T18:58:11.787Z,101290.98
2023-05-12T19:00:58.675Z,101291.02
2023-05-12T19:03:27.307Z,101290.52
2023-05-12T19:05:57.376Z,101289.86
2023-05-12T19:08:27.133Z,101282.65
2023-05-12T19:10:56.828Z,101280.77
2023-05-12T19:13:28.331Z,101280.86
2023-05-12T19:16:04.133Z,101282.20
2023-05-12T19:18:32.132Z,101280.67
2023-05-12T19:21:02.668Z,101275.92
2023-05-12T19:23:30.723Z,101272.21
2023-05-12T19:26:01.145Z,101270.63
2023-05-12T19:28:36.060Z,101268.52
2023-05-12T19:31:09.563Z,101266.05
2023-05-12T19:33:41.044Z,101266.98
2023-05-12T19:36:10.714Z,101264.70
2023-05-12T19:38:40.576Z,101262.77
2023-05-12T19:41:09.950Z,101259.98
2023-05-12T19:43:39.053Z,101257.70
2023-05-12T19:46:13.413Z,101262.68
2023-05-12T19:48:43.657Z,101258.28
2023-05-12T19:51:16.008Z,101251.91
2023-05-12T19:53:45.786Z,101255.82
2023-05-12T19:56:12.924Z,101256.89
2023-05-12T19:58:41.570Z,101257.27
2023-05-12T20:01:08.722Z,101259.75
2023-05-12T20:03:36.099Z,101258.52
2023-05-12T20:06:04.663Z,101257.82
2023-05-12T20:08:32.297Z,101259.25
2023-05-12T20:11:02.747Z,101259.77
2023-05-12T20:13:32.645Z,101260.31
2023-05-12T20:15:59.890Z,101261.17
2023-05-12T20:18:29.025Z,101265.07
2023-05-12T20:20:56.624Z,101267.38
2023-05-12T20:23:33.395Z,101266.84
2023-05-12T20:26:01.393Z,101263.48
2023-05-12T20:28:29.447Z,101264.54
2023-05-12T20:31:00.965Z,101270.03
2023-05-12T20:33:29.927Z,101275.89
2023-05-12T20:35:57.143Z,101276.77
2023-05-12T20:38:26.235Z,101275.70
2023-05-12T20:40:54.633Z,101277.46
2023-05-12T20:43:23.215Z,101274.63
2023-05-12T20:45:51.438Z,101281.36
2023-05-12T20:48:19.394Z,101282.24
2023-05-12T20:50:46.868Z,101280.84
2023-05-12T20:53:15.214Z,101278.71
2023-05-12T20:55:42.633Z,101280.66
2023-05-12T20:58:10.814Z,101285.27
2023-05-12T21:00:38.679Z,101289.88
2023-05-12T21:03:06.439Z,101289.52
2023-05-12T21:05:34.533Z,101286.34
2023-05-12T21:08:03.531Z,101287.23
2023-05-12T21:10:35.097Z,101290.23
2023-05-12T21:13:04.368Z,101290.23
2023-05-12T21:15:36.357Z,101289.70
2023-05-12T21:18:04.034Z,101286.15
2023-05-12T21:20:34.878Z,101287.39
2023-05-12T21:23:01.926Z,101288.09
2023-05-12T21:25:32.284Z,101289.67
2023-05-12T21:28:01.611Z,101289.50
2023-05-12T21:30:29.624Z,101289.66
2023-05-12T21:32:56.760Z,101294.98
2023-05-12T21:35:23.926Z,101294.43
2023-05-12T21:37:52.003Z,101296.35
2023-05-12T21:40:20.330Z,101292.27
2023-05-12T21:42:52.477Z,101294.54
2023-05-12T21:45:21.490Z,101293.64
2023-05-12T21:47:51.772Z,101293.80
2023-05-12T21:50:25.324Z,101293.98
2023-05-12T21:52:52.832Z,101291.16
2023-05-12T21:55:21.025Z,101292.59
2023-05-12T21:57:49.490Z,101298.60
2023-05-12T22:00:19.637Z,101294.52
2023-05-12T22:02:48.131Z,101297.66
2023-05-12T22:05:19.049Z,101296.05
2023-05-12T22:07:51.572Z,101297.42
2023-05-12T22:10:19.335Z,101296.86
2023-05-12T22:12:49.495Z,101301.26
2023-05-12T22:15:17.631Z,101298.74
2023-05-12T22:17:47.211Z,101301.36
2023-05-12T22:20:14.248Z,101299.89
2023-05-12T22:22:42.410Z,101300.04
2023-05-12T22:25:09.525Z,101303.55
2023-05-12T22:27:39.903Z,101299.98
2023-05-12T22:30:09.612Z,101300.66
2023-05-12T22:32:37.706Z,101296.02
2023-05-12T22:35:08.903Z,101292.63
2023-05-12T22:37:38.094Z,101292.59
2023-05-12T22:40:06.952Z,101292.04
2023-05-12T22:42:35.184Z,101295.02
2023-05-12T22:45:04.265Z,101295.69
2023-05-12T22:47:31.853Z,101297.43
2023-05-12T22:49:59.506Z,101301.45
2023-05-12T22:52:27.488Z,101298.59
2023-05-12T22:54:55.071Z,101297.31
2023-05-12T22:57:22.581Z,101297.99
2023-05-12T22:59:50.323Z,101297.61
2023-05-12T23:02:18.324Z,101297.94
2023-05-12T23:04:45.346Z,101292.97
2023-05-12T23:07:14.003Z,101291.38
2023-05-12T23:09:48.859Z,101291.77
2023-05-12T23:12:16.618Z,101295.49
2023-05-12T23:14:46.563Z,101287.91
2023-05-12T23:17:14.341Z,101292.55
2023-05-12T23:19:42.308Z,101294.48
2023-05-12T23:22:09.298Z,101295.34
2023-05-12T23:24:37.733Z,101293.89
2023-05-12T23:27:05.265Z,101292.58
2023-05-12T23:29:33.974Z,101292.52
2023-05-12T23:32:05.341Z,101297.59
2023-05-12T23:34:32.725Z,101292.77
2023-05-12T23:37:00.906Z,101299.25
2023-05-12T23:39:29.188Z,101295.64
2023-05-12T23:41:56.677Z,101296.45
2023-05-12T23:44:23.690Z,101296.43
2023-05-12T23:46:52.238Z,101296.42
2023-05-12T23:49:19.990Z,101296.05
2023-05-12T23:51:47.709Z,101300.25
2023-05-12T23:54:14.879Z,101298.44
2023-05-12T23:56:42.450Z,101299.08
2023-05-12T23:59:10.718Z,101300.06
